Portada
METAR-TAF:

METAR-TAF

Aeroports :

Armenia, Colòmbia

latitud: 04-30N, longitud: 075-43W, altitud: 1204 m

Observació

L'informe es va fer fa 5 hores i 28 minuts, a les 23:00 UTC
Vent calma
Temperatura 26°C
Humitat 65%
Pressió 1015 hPa
Visibilitat 10 km o més
Núvols disperses a una alçada de 2700 ft
Núvols disperses a una alçada de 10000 ft

METAR: SKAR 242300Z 00000KT 9999 SCT027 SCT100 26/19 Q1015 RMK A2997

Hora: 23:28 (04:28 UTC)


TAF: manca

Observacions i pronòstics meteorològics de més de 4000 aeroports (METAR i TAF).

Les estacions disponibles són els punts grocs i vermells al mapa.

Posi el ratolí al punt desitjat per veure el nom de l'estació.

Feu clic per veure les observacions i els pronòstics meteorològics.

Per canviar el mapa: feu clic els botons verds amb una creu de color negre per apropar; al botó verd amb un guió per allunyar la imatge; o en les fletxes verdes per a mapes adjacents.


METAR-TAF: